Time;durP1;ratioP1;P1;durP2;ratioP2;P2;SDS_P1;SDS_P2;PMS_P1;PMS_P2;Temp;Humidity;BMP_temperature;BMP_pressure;BME280_temperature;BME280_humidity;BME280_pressure;Samples;Min_cycle;Max_cycle;Signal;HPM_P1;HPM_P2
2021/11/07 00:00:07;;;;;;;2.33;1.90;;;17.50;63.10;;;;;;5013243;28;20175;-65
2021/11/07 00:05:04;;;;;;;2.22;1.60;;;17.40;63.00;;;;;;5036249;28;20223;-63
2021/11/07 00:08:00;;;;;;;1.77;1.65;;;17.40;63.00;;;;;;5054578;28;20645;-63
2021/11/07 00:10:40;;;;;;;2.92;1.50;;;17.40;63.00;;;;;;5054236;28;20203;-64
2021/11/07 00:15:40;;;;;;;1.95;1.75;;;17.40;63.00;;;;;;5054515;28;20281;-64
2021/11/07 00:18:09;;;;;;;1.73;1.63;;;17.40;63.00;;;;;;5054168;28;20242;-66
2021/11/07 00:20:36;;;;;;;4.15;1.95;;;17.40;63.00;;;;;;5054572;28;20209;-66
2021/11/07 00:25:45;;;;;;;1.63;1.52;;;17.40;63.00;;;;;;5053155;28;20276;-66
2021/11/07 00:28:21;;;;;;;1.55;1.42;;;17.30;63.00;;;;;;5054300;28;20185;-67
2021/11/07 00:30:56;;;;;;;2.05;1.58;;;17.40;63.10;;;;;;5054024;28;20662;-66
2021/11/07 00:33:38;;;;;;;1.80;1.52;;;17.40;63.00;;;;;;5053962;28;20220;-65
2021/11/07 00:36:15;;;;;;;1.88;1.55;;;17.30;63.00;;;;;;5054478;28;20256;-63
2021/11/07 00:44:02;;;;;;;1.83;1.73;;;17.30;63.00;;;;;;5034654;28;20704;-65
2021/11/07 00:46:37;;;;;;;1.73;1.60;;;17.30;63.00;;;;;;5053288;28;20242;-64
2021/11/07 00:49:17;;;;;;;1.95;1.60;;;17.30;63.10;;;;;;5053969;28;20175;-64
2021/11/07 00:52:14;;;;;;;2.28;1.52;;;17.30;63.10;;;;;;5053834;28;20222;-65
2021/11/07 00:55:27;;;;;;;1.60;1.50;;;17.60;63.30;;;;;;5052919;28;20182;-67
2021/11/07 01:00:11;;;;;;;1.77;1.67;;;17.30;63.10;;;;;;5053383;28;20631;-66
2021/11/07 01:02:38;;;;;;;1.73;1.60;;;17.30;63.10;;;;;;5053524;28;20644;-65
2021/11/07 01:05:12;;;;;;;1.85;1.60;;;17.30;63.10;;;;;;5054032;28;20557;-62
2021/11/07 01:07:37;;;;;;;1.98;1.70;;;17.20;63.00;;;;;;5052873;28;20174;-63
2021/11/07 01:10:03;;;;;;;1.70;1.60;;;17.30;63.10;;;;;;5053478;28;20195;-63
2021/11/07 01:12:29;;;;;;;2.67;1.63;;;17.20;62.90;;;;;;5053812;28;20201;-65
2021/11/07 01:14:57;;;;;;;1.60;1.50;;;17.20;63.10;;;;;;5053321;28;20273;-66
2021/11/07 01:17:22;;;;;;;1.80;1.70;;;17.20;63.10;;;;;;5053581;28;20221;-66
2021/11/07 01:19:52;;;;;;;1.40;1.30;;;17.20;63.10;;;;;;5053149;28;20187;-66
2021/11/07 01:22:22;;;;;;;1.45;1.35;;;17.20;63.10;;;;;;5052655;28;20684;-65
2021/11/07 01:24:56;;;;;;;1.55;1.40;;;17.20;63.10;;;;;;5053356;28;20186;-65
2021/11/07 01:27:34;;;;;;;1.80;1.70;;;17.20;63.20;;;;;;5053452;28;20228;-66
2021/11/07 01:30:04;;;;;;;1.38;1.27;;;17.20;63.10;;;;;;5052634;28;20205;-66
2021/11/07 01:32:36;;;;;;;1.90;1.80;;;17.20;63.20;;;;;;5052927;28;20637;-67
2021/11/07 01:35:18;;;;;;;1.73;1.63;;;17.20;63.20;;;;;;5052146;28;20200;-65
2021/11/07 01:38:11;;;;;;;1.63;1.50;;;17.10;63.10;;;;;;5053114;28;20266;-65
2021/11/07 01:40:45;;;;;;;2.58;1.60;;;17.20;63.10;;;;;;5052962;28;20199;-66
2021/11/07 01:43:12;;;;;;;1.63;1.50;;;17.10;63.10;;;;;;5052371;28;20617;-65
2021/11/07 01:45:52;;;;;;;2.13;1.50;;;17.10;63.10;;;;;;5052447;28;20313;-64
2021/11/07 01:48:26;;;;;;;1.77;1.52;;;17.10;63.10;;;;;;5052929;28;20633;-64
2021/11/07 01:50:58;;;;;;;3.03;1.85;;;17.10;63.10;;;;;;5052071;28;20221;-63
2021/11/07 01:53:30;;;;;;;1.40;1.30;;;17.10;63.10;;;;;;5053028;28;20511;-65
2021/11/07 01:55:57;;;;;;;1.65;1.55;;;17.10;63.20;;;;;;5052252;28;20832;-67
2021/11/07 01:58:27;;;;;;;2.45;1.40;;;17.10;63.10;;;;;;5052946;28;20171;-64
2021/11/07 02:00:52;;;;;;;1.80;1.70;;;17.10;63.10;;;;;;5052562;28;20235;-64
2021/11/07 02:03:18;;;;;;;1.92;1.48;;;17.10;63.20;;;;;;5052058;28;20175;-63
2021/11/07 02:05:44;;;;;;;2.33;1.90;;;17.10;63.10;;;;;;5052461;28;20175;-63
2021/11/07 02:08:09;;;;;;;1.83;1.73;;;17.10;63.10;;;;;;5052691;28;20262;-63
2021/11/07 02:10:36;;;;;;;1.63;1.52;;;17.10;63.10;;;;;;5051326;28;20224;-65
2021/11/07 02:13:02;;;;;;;1.60;1.50;;;17.10;63.20;;;;;;5052790;28;20183;-65
2021/11/07 02:15:27;;;;;;;1.70;1.60;;;17.10;63.20;;;;;;5052564;28;20171;-65
2021/11/07 02:17:53;;;;;;;1.75;1.60;;;17.10;63.10;;;;;;5051577;28;20627;-65
2021/11/07 02:20:32;;;;;;;1.65;1.55;;;17.10;63.20;;;;;;5052627;28;20700;-64
2021/11/07 02:23:03;;;;;;;1.60;1.50;;;17.10;63.20;;;;;;5052355;28;20591;-64
2021/11/07 02:25:28;;;;;;;2.05;1.52;;;17.10;63.30;;;;;;5051452;28;20664;-65
2021/11/07 02:27:54;;;;;;;3.22;2.05;;;17.10;63.30;;;;;;5052463;28;20183;-66
2021/11/07 02:30:20;;;;;;;1.77;1.67;;;17.10;63.30;;;;;;5052289;28;20699;-66
2021/11/07 02:32:47;;;;;;;1.95;1.77;;;17.10;63.30;;;;;;5051409;28;20194;-65
2021/11/07 02:35:12;;;;;;;1.90;1.80;;;17.10;63.30;;;;;;5052267;28;20187;-64
2021/11/07 02:37:39;;;;;;;1.40;1.33;;;17.10;63.30;;;;;;5051966;28;20217;-65
2021/11/07 02:40:07;;;;;;;1.80;1.70;;;17.10;63.30;;;;;;5051420;28;20621;-65
2021/11/07 02:42:33;;;;;;;1.45;1.35;;;17.00;63.30;;;;;;5052093;28;20179;-66
2021/11/07 02:44:59;;;;;;;1.70;1.40;;;17.00;63.20;;;;;;5052052;28;20273;-64
2021/11/07 02:47:24;;;;;;;1.80;1.70;;;17.30;63.40;;;;;;5050580;28;20178;-64
2021/11/07 02:49:50;;;;;;;1.90;1.70;;;17.00;63.30;;;;;;5051654;28;20649;-64
2021/11/07 02:52:15;;;;;;;1.60;1.50;;;17.00;63.30;;;;;;5051503;28;20189;-65
2021/11/07 02:54:41;;;;;;;1.70;1.60;;;17.00;63.30;;;;;;5051956;28;20167;-66
2021/11/07 02:57:08;;;;;;;1.90;1.80;;;17.00;63.30;;;;;;5052077;28;20377;-65
2021/11/07 02:59:36;;;;;;;2.05;1.40;;;17.00;63.30;;;;;;5050897;28;20653;-65
2021/11/07 03:02:03;;;;;;;3.33;1.80;;;17.00;63.30;;;;;;5052107;28;20251;-63
2021/11/07 03:04:29;;;;;;;1.70;1.55;;;17.00;63.20;;;;;;5051655;28;20642;-64
2021/11/07 03:06:55;;;;;;;1.98;1.77;;;17.00;63.40;;;;;;5051444;28;20171;-63
2021/11/07 03:09:22;;;;;;;1.90;1.75;;;17.00;63.30;;;;;;5052223;28;20182;-64
2021/11/07 03:11:48;;;;;;;1.90;1.80;;;17.00;63.40;;;;;;5051630;28;20214;-64
2021/11/07 03:14:18;;;;;;;1.90;1.80;;;17.00;63.40;;;;;;5051551;28;20175;-65
2021/11/07 03:16:44;;;;;;;1.60;1.50;;;17.00;63.40;;;;;;5052008;28;20260;-65
2021/11/07 03:19:11;;;;;;;2.20;2.00;;;17.00;63.40;;;;;;5052060;28;20629;-64
2021/11/07 03:21:37;;;;;;;1.95;1.85;;;17.00;63.40;;;;;;5051191;28;20182;-65
2021/11/07 03:24:03;;;;;;;2.08;1.98;;;17.00;63.40;;;;;;5051529;28;20664;-65
2021/11/07 03:26:29;;;;;;;1.88;1.77;;;16.90;63.30;;;;;;5051791;28;20175;-65
2021/11/07 03:29:00;;;;;;;2.05;1.95;;;17.00;63.40;;;;;;5051069;28;20262;-66
2021/11/07 03:34:01;;;;;;;1.88;1.77;;;16.90;63.40;;;;;;5052042;28;20171;-65
2021/11/07 03:36:32;;;;;;;1.67;1.52;;;16.90;63.40;;;;;;5051067;28;20171;-65
2021/11/07 03:38:57;;;;;;;2.67;2.25;;;16.90;63.30;;;;;;5051685;28;20186;-64
2021/11/07 03:41:23;;;;;;;1.90;1.70;;;16.90;63.30;;;;;;5051000;28;20545;-62
2021/11/07 03:43:49;;;;;;;1.98;1.80;;;16.90;63.30;;;;;;5050887;28;20190;-64
2021/11/07 03:46:15;;;;;;;2.30;2.15;;;16.90;63.40;;;;;;5051184;28;20234;-63
2021/11/07 03:48:41;;;;;;;1.88;1.77;;;16.90;63.30;;;;;;5050477;28;20177;-65
2021/11/07 03:51:11;;;;;;;1.92;1.83;;;16.90;63.40;;;;;;5051436;28;20623;-64
2021/11/07 03:53:36;;;;;;;2.60;1.98;;;16.90;63.40;;;;;;5051027;28;20695;-66
2021/11/07 03:56:02;;;;;;;2.92;2.20;;;16.90;63.40;;;;;;5050854;28;20175;-66
2021/11/07 03:58:29;;;;;;;2.80;2.20;;;16.90;63.40;;;;;;5052560;28;20199;-68
2021/11/07 04:00:54;;;;;;;2.00;1.90;;;16.90;63.40;;;;;;5055027;28;20175;-65
2021/11/07 04:03:20;;;;;;;2.25;2.00;;;16.90;63.50;;;;;;5054679;28;20638;-65
2021/11/07 04:05:45;;;;;;;2.20;2.00;;;16.90;63.50;;;;;;5054990;28;20217;-63
2021/11/07 04:08:11;;;;;;;3.05;2.20;;;16.90;63.50;;;;;;5054866;28;20179;-65
2021/11/07 04:10:36;;;;;;;2.03;1.92;;;16.90;63.50;;;;;;5053840;28;20666;-65
2021/11/07 04:13:05;;;;;;;1.85;1.75;;;16.90;63.50;;;;;;5054818;28;20202;-64
2021/11/07 04:15:31;;;;;;;2.22;1.98;;;16.90;63.60;;;;;;5054632;28;20183;-66
2021/11/07 04:17:56;;;;;;;2.30;2.10;;;16.90;63.50;;;;;;5054381;28;20469;-65
2021/11/07 04:20:22;;;;;;;2.15;2.00;;;16.90;63.50;;;;;;5054765;28;20182;-65
2021/11/07 04:22:47;;;;;;;2.33;1.65;;;16.90;63.60;;;;;;5054308;28;20191;-65
2021/11/07 04:25:13;;;;;;;2.03;1.90;;;16.90;63.50;;;;;;5054062;28;20172;-65
2021/11/07 04:27:39;;;;;;;1.67;1.58;;;16.90;63.60;;;;;;5054267;28;20665;-66
2021/11/07 04:30:05;;;;;;;1.98;1.77;;;16.90;63.60;;;;;;5054342;28;20320;-65
2021/11/07 04:32:30;;;;;;;2.00;1.83;;;16.90;63.60;;;;;;5053494;28;20182;-65
2021/11/07 04:34:56;;;;;;;2.20;1.80;;;16.90;63.60;;;;;;5054465;28;20182;-63
2021/11/07 04:37:23;;;;;;;1.65;1.55;;;16.90;63.60;;;;;;5054604;28;20297;-64
2021/11/07 04:39:48;;;;;;;2.05;1.77;;;16.90;63.50;;;;;;5053534;28;20175;-64
2021/11/07 04:42:14;;;;;;;2.35;2.00;;;16.80;63.50;;;;;;5054395;28;20202;-64
2021/11/07 04:44:39;;;;;;;1.65;1.55;;;16.80;63.60;;;;;;5053982;28;20215;-66
2021/11/07 04:47:05;;;;;;;3.00;1.95;;;16.80;63.60;;;;;;5053908;28;20654;-63
2021/11/07 04:49:31;;;;;;;1.70;1.50;;;16.80;63.50;;;;;;5054124;28;20345;-64
2021/11/07 04:51:56;;;;;;;1.60;1.50;;;16.80;63.50;;;;;;5053394;28;20215;-64
2021/11/07 04:54:22;;;;;;;2.50;1.88;;;16.80;63.60;;;;;;5054264;28;20171;-66
2021/11/07 04:56:47;;;;;;;2.53;2.33;;;16.80;63.60;;;;;;5053943;28;20180;-65
2021/11/07 04:59:13;;;;;;;1.98;1.88;;;16.80;63.60;;;;;;5053247;28;20199;-65
2021/11/07 05:01:38;;;;;;;1.60;1.50;;;16.90;63.70;;;;;;5053934;28;20176;-64
2021/11/07 05:04:05;;;;;;;2.72;1.90;;;16.80;63.60;;;;;;5053828;28;20178;-64
2021/11/07 05:06:31;;;;;;;2.17;1.63;;;16.80;63.60;;;;;;5052770;28;20646;-64
2021/11/07 05:08:56;;;;;;;1.80;1.70;;;16.80;63.60;;;;;;5053956;28;20186;-63
2021/11/07 05:11:22;;;;;;;2.15;1.95;;;16.80;63.60;;;;;;5052896;28;20203;-64
2021/11/07 05:13:47;;;;;;;2.05;1.85;;;16.80;63.70;;;;;;5052687;28;20167;-65
2021/11/07 05:16:13;;;;;;;1.70;1.60;;;16.80;63.70;;;;;;5053980;28;20172;-64
2021/11/07 05:18:39;;;;;;;2.20;1.92;;;16.80;63.70;;;;;;5053439;28;20232;-66
2021/11/07 05:21:05;;;;;;;2.17;1.67;;;16.80;63.70;;;;;;5053057;28;20176;-64
2021/11/07 05:23:30;;;;;;;2.17;1.52;;;16.80;63.70;;;;;;5053336;28;20254;-66
2021/11/07 05:25:57;;;;;;;1.85;1.70;;;16.80;63.70;;;;;;5053529;28;20503;-64
2021/11/07 05:28:23;;;;;;;4.20;1.70;;;16.80;63.70;;;;;;5052822;28;20175;-66
2021/11/07 05:30:50;;;;;;;1.88;1.77;;;16.80;63.70;;;;;;5053104;28;20293;-65
2021/11/07 05:33:17;;;;;;;1.98;1.67;;;16.80;63.70;;;;;;5053558;28;20202;-65
2021/11/07 05:35:42;;;;;;;1.83;1.55;;;16.80;63.70;;;;;;5052310;28;20178;-64
2021/11/07 05:38:08;;;;;;;3.80;2.10;;;16.80;63.70;;;;;;5053207;28;20261;-63
2021/11/07 05:40:34;;;;;;;2.22;1.90;;;16.80;63.80;;;;;;5052839;28;20171;-64
2021/11/07 05:42:59;;;;;;;2.00;1.55;;;16.70;63.70;;;;;;5052221;28;20171;-64
2021/11/07 05:45:24;;;;;;;1.60;1.50;;;16.80;63.80;;;;;;5053125;28;20242;-64
2021/11/07 05:47:50;;;;;;;3.55;1.70;;;16.70;63.70;;;;;;5052996;28;20201;-63
2021/11/07 05:50:16;;;;;;;2.08;1.60;;;16.80;63.70;;;;;;5052472;28;20302;-64
2021/11/07 05:52:42;;;;;;;2.10;1.67;;;16.70;63.70;;;;;;5052629;28;20717;-66
2021/11/07 05:55:08;;;;;;;2.47;1.50;;;16.80;63.80;;;;;;5052355;28;20209;-67
2021/11/07 05:57:33;;;;;;;2.63;1.88;;;16.70;63.70;;;;;;5052421;28;20203;-67
2021/11/07 05:59:59;;;;;;;2.25;1.80;;;16.70;63.70;;;;;;5053067;28;20589;-65
2021/11/07 06:02:25;;;;;;;2.55;1.70;;;16.80;63.80;;;;;;5052253;28;20284;-65
2021/11/07 06:04:50;;;;;;;2.05;1.77;;;16.70;63.80;;;;;;5052276;28;20270;-64
2021/11/07 06:07:16;;;;;;;2.13;1.50;;;16.70;63.70;;;;;;5052774;28;20185;-62
2021/11/07 06:09:41;;;;;;;2.28;1.55;;;16.70;63.80;;;;;;5051975;28;20521;-64
2021/11/07 06:12:07;;;;;;;1.80;1.70;;;16.70;63.80;;;;;;5052724;28;20207;-64
2021/11/07 06:14:33;;;;;;;2.13;1.88;;;16.70;63.80;;;;;;5052718;28;20167;-66
2021/11/07 06:16:59;;;;;;;2.35;1.70;;;16.70;63.80;;;;;;5051879;28;20273;-66
2021/11/07 06:19:24;;;;;;;1.70;1.60;;;16.70;63.80;;;;;;5052709;28;20262;-64
2021/11/07 06:21:52;;;;;;;1.75;1.50;;;16.70;63.80;;;;;;5052434;28;20179;-64
2021/11/07 06:24:24;;;;;;;2.03;1.83;;;16.70;63.80;;;;;;5051800;28;20199;-64
2021/11/07 06:26:50;;;;;;;3.17;1.88;;;16.70;63.80;;;;;;5052160;28;20280;-65
2021/11/07 06:29:15;;;;;;;2.90;2.00;;;16.70;63.80;;;;;;5052706;28;20235;-65
2021/11/07 06:31:41;;;;;;;2.97;1.90;;;16.70;63.80;;;;;;5051584;28;20643;-64
2021/11/07 06:34:07;;;;;;;2.15;1.83;;;16.70;63.80;;;;;;5052516;28;20174;-64
2021/11/07 06:36:32;;;;;;;2.08;1.70;;;16.70;63.80;;;;;;5052139;28;20248;-64
2021/11/07 06:38:59;;;;;;;1.98;1.48;;;16.60;63.70;;;;;;5051410;28;20175;-63
2021/11/07 06:41:25;;;;;;;1.73;1.63;;;16.60;63.70;;;;;;5051977;28;20228;-63
2021/11/07 06:43:51;;;;;;;2.85;1.88;;;16.60;63.70;;;;;;5052031;28;20338;-63
2021/11/07 06:46:16;;;;;;;2.00;1.77;;;16.60;63.70;;;;;;5051225;28;20300;-62
2021/11/07 06:48:44;;;;;;;3.83;2.10;;;16.60;63.70;;;;;;5051628;28;20175;-63
2021/11/07 06:51:09;;;;;;;1.75;1.58;;;16.70;63.90;;;;;;5052027;28;20207;-63
2021/11/07 06:53:37;;;;;;;2.42;1.80;;;16.70;63.80;;;;;;5050947;28;20186;-64
2021/11/07 06:56:03;;;;;;;2.08;1.85;;;16.60;63.70;;;;;;5052204;28;20185;-65
2021/11/07 06:58:28;;;;;;;2.78;1.83;;;16.60;63.70;;;;;;5051206;28;20697;-66
2021/11/07 07:00:54;;;;;;;2.40;1.92;;;16.60;63.70;;;;;;5051886;28;20178;-64
2021/11/07 07:03:19;;;;;;;2.10;1.70;;;16.60;63.70;;;;;;5051841;28;20167;-63
2021/11/07 07:05:45;;;;;;;1.75;1.60;;;16.60;63.90;;;;;;5050950;28;20252;-62
2021/11/07 07:08:15;;;;;;;2.97;1.92;;;16.70;64.10;;;;;;5051778;28;20175;-63
2021/11/07 07:11:03;;;;;;;2.92;1.83;;;16.80;63.90;;;;;;5051632;28;20219;-63
2021/11/07 07:13:35;;;;;;;1.95;1.30;;;17.00;63.60;;;;;;5050944;28;20187;-64
2021/11/07 07:24:15;;;;;;;2.72;1.42;;;18.00;62.00;;;;;;5051799;28;20197;-65
2021/11/07 07:27:00;;;;;;;1.88;1.30;;;18.20;61.40;;;;;;5050735;28;20187;-66
2021/11/07 07:32:22;;;;;;;2.28;1.27;;;18.60;59.80;;;;;;5051719;28;20576;-65
2021/11/07 07:34:50;;;;;;;2.22;1.30;;;18.80;59.50;;;;;;5053956;28;20179;-63
2021/11/07 07:37:16;;;;;;;1.98;1.38;;;18.80;59.40;;;;;;5055484;28;20175;-63
2021/11/07 07:39:41;;;;;;;2.25;1.50;;;19.10;59.50;;;;;;5055356;28;20194;-64
2021/11/07 07:42:07;;;;;;;2.03;1.42;;;18.90;59.20;;;;;;5054761;28;20645;-69
2021/11/07 07:44:34;;;;;;;3.40;1.55;;;19.10;59.20;;;;;;5054664;28;20218;-69
2021/11/07 07:47:00;;;;;;;3.00;1.50;;;19.10;59.00;;;;;;5055348;28;20221;-68
2021/11/07 07:49:25;;;;;;;1.30;1.20;;;19.10;59.10;;;;;;5054424;28;20214;-68
2021/11/07 07:51:52;;;;;;;1.75;1.58;;;19.10;59.20;;;;;;5054595;28;20302;-69
2021/11/07 07:54:17;;;;;;;2.33;1.45;;;19.00;59.30;;;;;;5055169;28;20232;-70
2021/11/07 07:56:43;;;;;;;1.83;1.25;;;19.00;59.40;;;;;;5054233;28;20175;-69
2021/11/07 07:59:08;;;;;;;2.30;1.20;;;19.00;59.40;;;;;;5054935;28;20172;-70
2021/11/07 08:01:34;;;;;;;2.53;1.23;;;19.00;59.50;;;;;;5054718;28;20228;-69
2021/11/07 08:04:00;;;;;;;1.63;1.30;;;19.00;59.50;;;;;;5054308;28;20179;-70
2021/11/07 08:06:26;;;;;;;1.92;1.25;;;19.00;59.40;;;;;;5054844;28;20320;-69
2021/11/07 08:08:51;;;;;;;2.35;1.48;;;19.10;59.50;;;;;;5053681;28;20642;-69
2021/11/07 08:11:18;;;;;;;1.80;1.15;;;19.00;59.60;;;;;;5054720;28;20291;-69
2021/11/07 08:13:47;;;;;;;2.63;1.45;;;18.90;59.70;;;;;;5054599;28;20178;-70
2021/11/07 08:16:16;;;;;;;2.75;1.60;;;18.80;60.00;;;;;;5054158;28;20361;-69
2021/11/07 08:18:42;;;;;;;2.95;1.30;;;18.70;60.30;;;;;;5054325;28;20179;-66
2021/11/07 08:21:10;;;;;;;2.60;1.30;;;18.70;60.60;;;;;;5054488;28;20213;-66
2021/11/07 08:23:36;;;;;;;1.75;1.30;;;18.60;60.70;;;;;;5053664;28;20187;-65
2021/11/07 08:26:02;;;;;;;1.50;1.40;;;18.50;60.80;;;;;;5054942;28;20584;-66
2021/11/07 08:28:28;;;;;;;3.53;1.58;;;18.50;60.90;;;;;;5054866;28;20171;-66
2021/11/07 08:31:02;;;;;;;2.40;1.25;;;18.50;61.00;;;;;;5053930;28;20241;-70
2021/11/07 08:33:28;;;;;;;1.67;1.30;;;18.40;61.40;;;;;;5054595;28;20642;-66
2021/11/07 08:35:59;;;;;;;3.42;1.50;;;18.30;62.20;;;;;;5054506;28;20171;-67
2021/11/07 08:38:30;;;;;;;3.17;1.55;;;18.20;62.60;;;;;;5053850;28;20175;-65
2021/11/07 08:40:57;;;;;;;4.70;1.70;;;18.20;62.70;;;;;;5054490;28;20179;-65
2021/11/07 09:05:10;;;;;;;3.55;1.90;;;18.30;62.60;;;;;;5053088;28;20172;-65
2021/11/07 09:07:40;;;;;;;2.25;1.65;;;18.40;62.60;;;;;;5053564;28;20207;-64
2021/11/07 09:10:17;;;;;;;3.08;1.80;;;18.40;62.70;;;;;;5053815;28;20214;-64
2021/11/07 09:12:42;;;;;;;5.25;1.90;;;18.40;62.70;;;;;;5052684;28;20628;-64
2021/11/07 09:15:08;;;;;;;2.88;1.63;;;18.50;62.70;;;;;;5053805;28;20179;-64
2021/11/07 09:17:33;;;;;;;4.18;2.03;;;18.50;62.60;;;;;;5053379;28;20182;-66
2021/11/07 09:20:05;;;;;;;3.92;1.90;;;18.60;63.40;;;;;;5052615;28;20175;-66
2021/11/07 09:22:43;;;;;;;2.97;1.40;;;18.70;62.50;;;;;;5053411;28;20171;-64
2021/11/07 09:25:32;;;;;;;5.20;1.85;;;18.60;62.70;;;;;;5053503;28;20203;-62
2021/11/07 09:30:30;;;;;;;5.28;2.00;;;18.30;63.50;;;;;;5053591;28;20772;-64
2021/11/07 09:35:43;;;;;;;7.30;2.00;;;18.20;64.20;;;;;;5053021;28;20609;-67
2021/11/07 09:38:21;;;;;;;5.78;1.70;;;18.20;63.90;;;;;;5055774;28;20682;-66
2021/11/07 09:40:59;;;;;;;7.22;1.92;;;18.20;64.20;;;;;;5059932;28;20637;-65
2021/11/07 09:43:39;;;;;;;4.28;1.92;;;18.10;64.10;;;;;;5058013;28;20706;-67
2021/11/07 09:46:29;;;;;;;4.97;1.67;;;18.20;64.00;;;;;;5061434;28;20223;-65
2021/11/07 09:48:59;;;;;;;7.82;2.05;;;18.30;63.80;;;;;;5059622;28;20163;-66
2021/11/07 09:51:32;;;;;;;5.38;1.90;;;18.30;63.60;;;;;;5072831;28;20546;-65
2021/11/07 09:53:57;;;;;;;5.57;1.77;;;18.30;63.70;;;;;;5072426;28;20198;-65
2021/11/07 09:56:24;;;;;;;5.90;2.20;;;18.30;63.60;;;;;;5053809;28;20633;-65
2021/11/07 09:58:52;;;;;;;5.57;1.60;;;18.30;63.60;;;;;;5072541;28;20231;-66
2021/11/07 10:01:18;;;;;;;3.38;1.75;;;18.30;63.70;;;;;;5071813;28;20209;-65
2021/11/07 10:03:45;;;;;;;7.07;1.83;;;18.20;63.70;;;;;;5072492;28;20189;-65
2021/11/07 10:06:31;;;;;;;5.22;1.77;;;18.20;63.70;;;;;;5072545;28;20181;-64
2021/11/07 10:08:57;;;;;;;6.72;2.03;;;18.20;63.80;;;;;;5072041;28;20170;-69
2021/11/07 10:11:30;;;;;;;7.35;2.15;;;18.30;63.80;;;;;;5072502;28;20206;-68
2021/11/07 10:14:04;;;;;;;5.38;2.30;;;18.20;63.70;;;;;;5071891;28;20887;-65
2021/11/07 10:16:40;;;;;;;6.20;1.80;;;18.20;63.70;;;;;;5071581;28;20544;-64
2021/11/07 10:19:15;;;;;;;6.32;2.10;;;18.20;63.80;;;;;;5072434;28;20535;-65
2021/11/07 10:21:45;;;;;;;5.45;1.75;;;18.20;63.60;;;;;;5071997;28;20178;-65
2021/11/07 10:24:19;;;;;;;5.75;1.63;;;18.20;63.70;;;;;;5070217;28;20179;-65
2021/11/07 10:26:50;;;;;;;4.97;1.63;;;18.20;63.70;;;;;;5072260;28;20178;-65
2021/11/07 10:29:31;;;;;;;9.00;2.25;;;18.20;63.80;;;;;;5072781;28;20174;-65
2021/11/07 10:32:01;;;;;;;7.30;1.98;;;18.10;63.90;;;;;;5072021;28;20210;-66
2021/11/07 10:47:24;;;;;;;12.65;2.25;;;18.00;64.10;;;;;;5072256;28;20189;-65
2021/11/07 10:52:37;;;;;;;6.05;2.00;;;18.20;64.30;;;;;;5070709;28;20698;-64
2021/11/07 10:55:06;;;;;;;4.05;1.48;;;18.20;64.20;;;;;;5071860;28;20524;-66
2021/11/07 10:57:33;;;;;;;3.33;1.55;;;18.30;64.20;;;;;;5070761;28;20167;-67
2021/11/07 11:00:36;;;;;;;7.50;1.67;;;18.40;64.20;;;;;;5072157;28;20178;-65
2021/11/07 11:03:20;;;;;;;3.78;1.55;;;18.50;64.00;;;;;;5030917;28;20186;-65
2021/11/07 11:05:51;;;;;;;3.30;1.60;;;18.60;63.60;;;;;;5070914;28;20273;-66
2021/11/07 11:08:21;;;;;;;5.38;2.03;;;18.70;63.20;;;;;;5071350;28;20184;-66
2021/11/07 11:10:56;;;;;;;3.90;1.95;;;18.80;62.90;;;;;;5071570;28;20668;-63
2021/11/07 11:13:42;;;;;;;4.28;1.30;;;19.00;62.60;;;;;;5070939;28;20532;-65
2021/11/07 11:16:29;;;;;;;5.40;1.75;;;19.20;62.20;;;;;;5064655;28;20233;-66
2021/11/07 11:37:46;;;;;;;3.47;1.85;;;19.80;59.80;;;;;;5071803;28;20178;-65
2021/11/07 11:45:09;;;;;;;4.78;2.17;;;19.50;60.50;;;;;;5071365;28;20219;-65
2021/11/07 11:48:09;;;;;;;5.28;1.80;;;19.40;60.60;;;;;;5070411;28;20181;-64
2021/11/07 11:58:24;;;;;;;5.30;1.95;;;19.10;61.40;;;;;;5051604;28;20175;-65
2021/11/07 12:06:23;;;;;;;3.00;1.50;;;19.00;61.80;;;;;;5051256;28;20178;-64
2021/11/07 12:09:02;;;;;;;4.90;2.03;;;19.00;61.90;;;;;;5050498;28;20195;-68
2021/11/07 12:14:06;;;;;;;4.97;1.80;;;18.80;62.20;;;;;;5051219;28;20203;-70
2021/11/07 12:16:49;;;;;;;6.88;1.88;;;18.70;62.40;;;;;;5050076;28;20178;-67
2021/11/07 12:19:17;;;;;;;5.90;2.00;;;18.70;62.60;;;;;;5052146;28;20175;-71
2021/11/07 12:21:49;;;;;;;4.35;1.88;;;18.70;62.60;;;;;;5054532;28;20225;-69
2021/11/07 12:24:18;;;;;;;5.70;2.15;;;18.70;62.60;;;;;;5061442;28;20167;-69
2021/11/07 12:26:43;;;;;;;5.25;1.92;;;18.80;62.40;;;;;;5074200;28;20212;-69
2021/11/07 12:29:09;;;;;;;5.40;1.90;;;18.80;62.20;;;;;;5055896;28;20178;-71
2021/11/07 12:31:35;;;;;;;5.15;2.25;;;18.80;62.10;;;;;;5056453;28;20568;-69
2021/11/07 12:34:10;;;;;;;5.18;1.70;;;18.90;62.10;;;;;;5074387;28;20585;-70
2021/11/07 12:42:22;;;;;;;5.38;1.95;;;18.90;61.70;;;;;;5074082;28;20672;-68
2021/11/07 12:44:51;;;;;;;4.68;2.03;;;19.00;61.60;;;;;;5073152;28;20217;-72
2021/11/07 12:47:22;;;;;;;3.17;1.70;;;19.10;61.70;;;;;;5074286;28;20529;-69
2021/11/07 12:50:07;;;;;;;6.63;1.85;;;19.10;61.60;;;;;;5073609;28;20170;-70
2021/11/07 12:52:50;;;;;;;6.15;1.75;;;19.20;61.40;;;;;;5074023;28;20492;-72
2021/11/07 12:55:26;;;;;;;5.00;1.92;;;19.30;61.30;;;;;;5073024;28;20189;-73
2021/11/07 12:57:51;;;;;;;6.22;1.77;;;19.40;61.30;;;;;;5072972;28;20181;-71
2021/11/07 13:00:17;;;;;;;5.47;2.00;;;19.40;61.30;;;;;;5073858;28;20167;-72
2021/11/07 13:02:43;;;;;;;4.43;1.63;;;19.40;61.30;;;;;;5073581;28;20171;-72
2021/11/07 13:05:22;;;;;;;5.45;1.50;;;19.30;61.40;;;;;;5072982;28;20182;-75
2021/11/07 13:07:56;;;;;;;4.03;1.50;;;19.20;61.60;;;;;;5073711;28;20178;-66
2021/11/07 13:10:34;;;;;;;4.88;1.48;;;19.20;61.70;;;;;;5073970;28;20264;-66
2021/11/07 13:13:15;;;;;;;3.72;1.70;;;19.10;62.00;;;;;;5073082;28;20614;-66
2021/11/07 13:15:50;;;;;;;4.90;1.77;;;19.00;62.10;;;;;;5073766;28;20274;-66
2021/11/07 13:18:32;;;;;;;6.88;2.03;;;19.00;62.00;;;;;;5073077;28;20178;-67
2021/11/07 13:22:09;;;;;;;8.45;2.22;;;19.00;62.20;;;;;;5064107;28;20644;-66
2021/11/07 13:32:35;;;;;;;4.32;1.83;;;18.70;62.70;;;;;;5052607;28;20276;-67
2021/11/07 13:35:16;;;;;;;6.32;2.05;;;18.70;62.80;;;;;;5053406;28;20193;-67
2021/11/07 13:37:47;;;;;;;7.10;1.80;;;18.70;62.50;;;;;;5052670;28;20542;-68
2021/11/07 13:40:23;;;;;;;6.22;1.88;;;18.60;62.60;;;;;;5052221;28;20228;-69
2021/11/07 13:42:49;;;;;;;4.32;1.70;;;18.60;62.70;;;;;;5053006;28;20182;-67
2021/11/07 13:45:26;;;;;;;7.53;1.95;;;18.50;62.80;;;;;;5053105;28;20218;-68
2021/11/07 13:47:52;;;;;;;4.82;1.88;;;18.50;62.80;;;;;;5052216;28;20218;-68
2021/11/07 13:50:20;;;;;;;4.75;1.58;;;18.50;62.90;;;;;;5053152;28;20207;-67
2021/11/07 13:52:46;;;;;;;6.15;2.38;;;18.40;63.00;;;;;;5052701;28;20183;-67
2021/11/07 13:55:12;;;;;;;6.28;1.80;;;18.40;63.20;;;;;;5052159;28;20172;-68
2021/11/07 13:57:38;;;;;;;3.95;1.85;;;18.30;63.10;;;;;;5052623;28;20182;-68
2021/11/07 14:00:07;;;;;;;3.92;1.35;;;18.30;63.30;;;;;;5052807;28;20171;-68
2021/11/07 14:02:33;;;;;;;6.78;2.17;;;18.30;63.20;;;;;;5051758;28;20188;-66
2021/11/07 14:04:59;;;;;;;4.07;1.73;;;18.30;63.40;;;;;;5052638;28;20177;-67
2021/11/07 14:07:27;;;;;;;7.65;2.75;;;18.30;63.40;;;;;;5051912;28;20571;-67
2021/11/07 14:10:21;;;;;;;5.75;1.85;;;18.30;63.40;;;;;;5052486;28;20179;-66
2021/11/07 14:12:53;;;;;;;4.05;1.70;;;18.20;63.40;;;;;;5052248;28;20199;-65
2021/11/07 14:15:22;;;;;;;5.03;1.90;;;18.20;63.40;;;;;;5051813;28;20539;-66
2021/11/07 14:17:49;;;;;;;4.55;2.15;;;18.20;63.40;;;;;;5052379;28;20171;-66
2021/11/07 14:20:33;;;;;;;3.95;1.50;;;18.20;63.40;;;;;;5052695;28;20274;-65
2021/11/07 14:23:21;;;;;;;6.35;2.05;;;18.10;63.30;;;;;;5051864;28;20220;-66
2021/11/07 14:25:53;;;;;;;4.18;1.90;;;18.20;63.20;;;;;;5052019;28;20187;-65
2021/11/07 14:28:22;;;;;;;3.72;2.10;;;18.30;63.30;;;;;;5052514;28;20187;-66
2021/11/07 14:30:48;;;;;;;6.50;1.90;;;18.30;63.20;;;;;;5051081;28;20303;-66
2021/11/07 14:33:24;;;;;;;5.22;1.80;;;18.30;63.10;;;;;;5051134;28;20187;-68
2021/11/07 14:35:51;;;;;;;4.38;1.50;;;18.40;62.70;;;;;;5050103;28;21027;-67
2021/11/07 14:38:22;;;;;;;4.45;1.83;;;18.40;62.50;;;;;;5052110;28;20225;-67
2021/11/07 14:40:57;;;;;;;4.30;2.05;;;18.40;62.50;;;;;;5050713;28;21068;-67
2021/11/07 14:43:30;;;;;;;4.05;1.80;;;18.40;62.40;;;;;;5050547;28;20185;-67
2021/11/07 14:46:09;;;;;;;2.78;1.75;;;18.40;62.50;;;;;;5035131;28;20646;-67
2021/11/07 14:51:29;;;;;;;4.22;1.77;;;18.40;62.60;;;;;;5051244;28;20637;-66
2021/11/07 14:56:54;;;;;;;6.40;1.88;;;18.40;62.50;;;;;;5051101;28;20198;-65
2021/11/07 15:02:26;;;;;;;4.53;1.77;;;18.50;62.50;;;;;;5052141;28;20519;-66
2021/11/07 15:05:06;;;;;;;6.13;2.15;;;18.50;62.40;;;;;;5051121;28;20246;-66
2021/11/07 15:07:39;;;;;;;6.97;1.90;;;18.50;62.40;;;;;;5051546;28;20229;-66
2021/11/07 15:10:26;;;;;;;2.95;1.70;;;18.50;62.40;;;;;;5052007;28;20187;-66
2021/11/07 15:13:33;;;;;;;5.32;2.00;;;18.50;62.40;;;;;;5050720;28;20652;-65
2021/11/07 15:18:39;;;;;;;3.25;1.92;;;18.40;62.40;;;;;;5051235;28;20203;-66